Emmet, North Dakota
Current Conditions -  °F | °C
As of 6:15 AM on Monday 24 Nov 2014 (Local Time) from KHZE Reporting Station
Scattered Clouds Scattered Clouds  
Wind Chill: -2°   Ceiling: Unl
Heat Index: 10°   Visibility: 10mi
Dew Point:   Wind: 9mph
Humidity: 79%   Direction: 340°NNW
Pressure: 29.84"   Gusts: NA
Location:  47.6°N, 101.4°W
Report Text: KHZE 241215Z AUTO 34008KT 10SM SCT065 M12/M15 A2984 RMK AO2
Loading
Personal Weather Stations






























Interactive Weather Map New forecast layout! Learn more

10-Day Weather Forecast

Advertisements
Track Severe Weather on mobile